createdAt,value
2022-08-11T00:05:01.533Z,99.0
2022-08-11T00:15:01.633Z,99.0
2022-08-11T00:30:01.566Z,99.0
2022-08-11T00:40:01.785Z,99.0
2022-08-11T00:45:01.650Z,99.0
2022-08-11T00:50:01.451Z,99.0
2022-08-11T00:55:16.246Z,99.0
2022-08-11T01:00:04.331Z,99.0
2022-08-11T01:10:07.855Z,99.0
2022-08-11T01:15:01.529Z,99.0
2022-08-11T01:25:02.571Z,99.0
2022-08-11T01:45:01.535Z,99.0
2022-08-11T01:55:02.552Z,99.0
2022-08-11T02:00:02.969Z,99.0
2022-08-11T02:10:02.107Z,99.0
2022-08-11T02:15:06.059Z,99.0
2022-08-11T02:25:01.550Z,99.0
2022-08-11T02:30:01.482Z,99.0
2022-08-11T02:45:01.278Z,99.0
2022-08-11T02:55:01.280Z,99.0
2022-08-11T03:00:01.283Z,99.0
2022-08-11T03:15:01.293Z,99.0
2022-08-11T03:25:01.286Z,99.0
2022-08-11T03:30:01.295Z,99.0
2022-08-11T03:40:01.705Z,99.0
2022-08-11T03:45:01.304Z,99.0
2022-08-11T03:55:01.302Z,99.0
2022-08-11T04:00:01.294Z,99.0
2022-08-11T04:15:01.364Z,99.0
2022-08-11T04:30:12.020Z,99.0
2022-08-11T04:40:01.308Z,99.0
2022-08-11T04:45:01.315Z,99.0
2022-08-11T04:50:01.305Z,99.0
2022-08-11T04:55:01.311Z,99.0
2022-08-11T05:00:02.329Z,99.0
2022-08-11T05:05:01.374Z,99.0
2022-08-11T05:10:01.303Z,99.0
2022-08-11T05:15:06.375Z,99.0
2022-08-11T05:20:01.366Z,99.0
2022-08-11T05:25:01.708Z,99.0
2022-08-11T05:30:01.299Z,99.0
2022-08-11T05:35:01.336Z,99.0
2022-08-11T05:40:01.838Z,99.0
2022-08-11T05:45:01.871Z,99.0
2022-08-11T05:50:01.967Z,99.0
2022-08-11T05:55:07.749Z,99.0
2022-08-11T06:00:01.458Z,99.0
2022-08-11T06:05:01.413Z,99.0
2022-08-11T06:10:01.359Z,99.0
2022-08-11T06:15:01.348Z,99.0
2022-08-11T06:20:08.024Z,99.0
2022-08-11T06:25:01.740Z,99.0
2022-08-11T06:30:01.620Z,99.0
2022-08-11T06:40:01.610Z,99.0
2022-08-11T06:45:01.722Z,99.0
2022-08-11T06:50:01.688Z,99.0
2022-08-11T06:55:01.787Z,99.0
2022-08-11T07:10:01.645Z,99.0
2022-08-11T07:15:01.788Z,99.0
2022-08-11T07:20:01.737Z,99.0
2022-08-11T07:25:04.048Z,99.0
2022-08-11T07:30:01.717Z,99.0
2022-08-11T07:35:01.774Z,99.0
2022-08-11T07:40:02.058Z,99.0
2022-08-11T07:45:02.083Z,99.0
2022-08-11T07:50:01.996Z,99.0
2022-08-11T07:55:03.504Z,99.0
2022-08-11T08:00:05.425Z,99.0
2022-08-11T08:05:01.966Z,99.0
2022-08-11T08:10:01.977Z,99.0
2022-08-11T08:25:01.827Z,99.0
2022-08-11T08:30:01.587Z,99.0
2022-08-11T08:35:01.719Z,99.0
2022-08-11T08:40:01.689Z,99.0
2022-08-11T08:50:02.335Z,99.0
2022-08-11T08:55:01.699Z,99.0
2022-08-11T09:05:01.715Z,99.0
2022-08-11T09:10:01.720Z,99.0
2022-08-11T09:15:01.747Z,99.0
2022-08-11T09:20:03.836Z,99.0
2022-08-11T09:30:01.589Z,99.0
2022-08-11T09:35:01.905Z,99.0
2022-08-11T09:40:01.769Z,99.0
2022-08-11T09:45:02.370Z,99.0
2022-08-11T09:50:02.707Z,99.0
2022-08-11T09:55:01.767Z,99.0
2022-08-11T10:00:14.581Z,99.0
2022-08-11T10:15:01.741Z,99.0
2022-08-11T10:25:01.983Z,99.0
2022-08-11T10:30:01.809Z,99.0
2022-08-11T10:35:01.804Z,99.0
2022-08-11T10:40:01.614Z,99.0
2022-08-11T10:45:01.734Z,99.0
2022-08-11T10:50:05.743Z,99.0
2022-08-11T11:05:16.387Z,99.0
2022-08-11T11:10:01.756Z,99.0
2022-08-11T11:15:01.823Z,99.0
2022-08-11T11:20:01.611Z,99.0
2022-08-11T11:30:01.670Z,99.0
2022-08-11T11:35:01.735Z,99.0
2022-08-11T11:40:01.675Z,99.0
2022-08-11T11:45:02.051Z,99.0
2022-08-11T11:55:01.824Z,99.0
2022-08-11T12:10:01.728Z,95.8
2022-08-11T12:15:01.672Z,95.8
2022-08-11T12:20:02.963Z,92.79
2022-08-11T12:25:01.722Z,92.79
2022-08-11T12:30:01.881Z,92.67
2022-08-11T12:45:01.581Z,91.54
2022-08-11T12:55:02.172Z,89.79
2022-08-11T13:00:03.091Z,90.58
2022-08-11T13:26:01.737Z,89.67
2022-08-11T13:36:02.242Z,88.84
2022-08-11T13:41:01.713Z,88.98
2022-08-11T13:51:01.733Z,89.66
2022-08-11T14:16:01.438Z,87.72
2022-08-11T14:21:01.795Z,89.15
2022-08-11T14:26:03.302Z,89.15
2022-08-11T14:31:02.557Z,90.13
2022-08-11T14:36:02.036Z,90.13
2022-08-11T14:51:02.106Z,87.31
2022-08-11T14:56:01.685Z,87.31
2022-08-11T15:01:06.948Z,86.06
2022-08-11T15:16:06.285Z,87.65
2022-08-11T15:21:01.668Z,87.25
2022-08-11T15:31:01.513Z,86.27
2022-08-11T15:36:01.584Z,86.27
2022-08-11T15:46:01.378Z,87.18
2022-08-11T16:01:09.690Z,88.15
2022-08-11T16:16:01.402Z,88.22
2022-08-11T16:31:01.449Z,83.67
2022-08-11T16:36:01.404Z,83.67
2022-08-11T16:41:01.403Z,84.92
2022-08-11T16:46:01.476Z,84.92
2022-08-11T16:51:01.791Z,84.84
2022-08-11T17:01:01.530Z,85.17
2022-08-11T17:11:04.706Z,86.25
2022-08-11T17:16:01.733Z,86.25
2022-08-11T17:21:01.532Z,90.29
2022-08-11T17:26:05.040Z,90.29
2022-08-11T17:31:23.098Z,91.8
2022-08-11T17:36:01.619Z,91.8
2022-08-11T17:41:02.177Z,93.67
2022-08-11T17:46:01.729Z,93.67
2022-08-11T17:51:02.651Z,94.73
2022-08-11T17:56:03.134Z,94.73
2022-08-11T18:01:10.331Z,98.66
2022-08-11T18:06:01.591Z,98.66
2022-08-11T18:11:01.617Z,99.0
2022-08-11T18:16:01.973Z,99.0
2022-08-11T18:22:16.341Z,99.0
2022-08-11T18:27:01.703Z,99.0
2022-08-11T18:32:01.980Z,99.0
2022-08-11T18:37:01.583Z,99.0
2022-08-11T18:42:01.576Z,99.0
2022-08-11T18:47:08.189Z,99.0
2022-08-11T18:52:01.544Z,99.0
2022-08-11T18:57:01.623Z,99.0
2022-08-11T19:02:01.658Z,99.0
2022-08-11T19:07:01.536Z,99.0
2022-08-11T19:12:01.592Z,99.0
2022-08-11T19:17:01.631Z,99.0
2022-08-11T19:22:01.576Z,99.0
2022-08-11T19:27:02.604Z,99.0
2022-08-11T19:32:01.651Z,99.0
2022-08-11T19:37:01.866Z,99.0
2022-08-11T19:42:01.618Z,99.0
2022-08-11T19:47:07.364Z,99.0
2022-08-11T19:52:01.886Z,99.0
2022-08-11T19:57:02.026Z,99.0
2022-08-11T20:02:15.377Z,99.0
2022-08-11T20:07:01.868Z,99.0
2022-08-11T20:12:01.583Z,99.0
2022-08-11T20:17:02.811Z,99.0
2022-08-11T20:22:10.181Z,99.0
2022-08-11T20:27:02.624Z,99.0
2022-08-11T20:32:10.233Z,99.0
2022-08-11T20:37:01.678Z,99.0
2022-08-11T20:42:01.686Z,99.0
2022-08-11T20:47:02.006Z,99.0
2022-08-11T20:52:06.977Z,99.0
2022-08-11T20:57:01.603Z,99.0
2022-08-11T21:02:16.937Z,99.0
2022-08-11T21:07:01.930Z,99.0
2022-08-11T21:30:01.400Z,99.0
2022-08-11T21:45:01.450Z,99.0
2022-08-11T22:00:02.239Z,99.0
2022-08-11T22:05:16.090Z,99.0
2022-08-11T22:15:02.204Z,99.0
2022-08-11T22:20:01.895Z,99.0
2022-08-11T22:25:01.389Z,99.0
2022-08-11T22:30:01.265Z,99.0
2022-08-11T22:45:06.333Z,99.0
2022-08-11T22:55:01.427Z,99.0
2022-08-11T23:00:02.815Z,99.0
2022-08-11T23:05:01.305Z,99.0
2022-08-11T23:10:01.343Z,99.0
2022-08-11T23:15:01.338Z,99.0
2022-08-11T23:25:08.083Z,99.0
2022-08-11T23:30:01.275Z,99.0
2022-08-11T23:40:01.441Z,99.0
2022-08-11T23:45:03.972Z,99.0
2022-08-11T23:50:02.299Z,99.0
